Coral Sapphire — 3EFA5 — position and weather

sailwx.info

Track history (hours):
 
Tides and Currents Weather Stations Pressure Air Temp Water Temp Dewpoint Dewpoint Depression Visibility Wind Speed Wind Dir Waves Ship Positions

Coral Sapphire

Last reported at 2018-May-31 14:35 UTC. Time now 2018-Jul-23 00:02 UTC.
Position N 31°05' E 122°56'.
Warning: this ship's position is 52 days out of date.

Length 225 m; draft 7 m.

Type: Cargo ship. MMSI: 371979000.

Date/timePositionNaut miles runAvg speedWind from/ knotsBaromVisibWave heightAir tempDewpointWater temp
2018-May-31 14:35N 31°05' E 122°56'1010.7
2018-May-31 13:37N 31°05' E 122°43'10 9.9
2018-May-31 12:38N 31°04' E 122°32'3 8.9
2018-May-31 12:17N 31°05' E 122°28'2 7.6
2018-May-31 11:58N 31°05' E 122°26'3 6.0
2018-May-31 11:30N 31°06' E 122°23'4 8.0
2018-May-31 11:00N 31°06' E 122°18'712.8
2018-May-31 10:26N 31°11' E 122°11'614.6
2018-May-31 10:00N 31°14' E 122°05'715.1
2018-May-31 09:30N 31°15' E 121°56'815.2
2018-May-31 08:59N 31°18' E 121°47'1512.2
2018-May-31 07:47N 31°24' E 121°32'311.0
2018-May-31 07:30N 31°26' E 121°29'5 9.8
2018-May-31 07:00N 31°30' E 121°26'4 8.7
2018-May-31 06:30N 31°30' E 121°31'611.2
2018-May-31 06:00N 31°29' E 121°37'1 2.5
2018-May-31 05:30N 31°30' E 121°38'4 8.8
2018-May-31 05:00N 31°32' E 121°33'4 7.6
2018-May-31 04:30N 31°34' E 121°29'0 0.0
2018-May-30 17:09N 31°34' E 121°29'0 0.0
2018-May-30 16:57N 31°34' E 121°29'0 0.0
2018-May-30 15:33N 31°34' E 121°29'0 0.0
2018-May-30 15:03N 31°34' E 121°29'0 0.0
2018-May-30 14:42N 31°34' E 121°29'0 0.0
2018-May-30 14:27N 31°34' E 121°29'  
2018-May-28 07:15N 31°36' E 121°27'0 0.0
2018-May-28 07:00N 31°36' E 121°27'0 0.0
2018-May-28 06:30N 31°36' E 121°27'0 0.0
2018-May-28 06:00N 31°36' E 121°27'0 0.0
2018-May-28 05:30N 31°36' E 121°27'0 0.0
2018-May-28 05:00N 31°36' E 121°27'0 0.0
2018-May-28 04:30N 31°36' E 121°27'0 0.0
2018-May-28 04:00N 31°36' E 121°27'0 0.0
2018-May-28 03:30N 31°36' E 121°27'0 0.0
2018-May-28 02:54N 31°36' E 121°27'0 0.0
2018-May-28 02:30N 31°36' E 121°27'0 0.0
2018-May-28 02:00N 31°36' E 121°27'0 0.0
2018-May-28 01:30N 31°36' E 121°27'0 0.0
2018-May-28 01:00N 31°36' E 121°27'0 0.0
2018-May-28 00:30N 31°36' E 121°27'0 0.0
2018-May-27 23:57N 31°36' E 121°27'0 0.0
2018-May-27 23:27N 31°36' E 121°27'0 0.0
2018-May-27 23:00N 31°36' E 121°27'0 0.0
2018-May-27 22:30N 31°36' E 121°27'0 0.0
2018-May-27 22:00N 31°36' E 121°27'0 0.0
2018-May-27 21:30N 31°36' E 121°27'0 0.0
2018-May-27 21:00N 31°36' E 121°27'0 0.0
2018-May-27 20:24N 31°36' E 121°27'0 0.0
2018-May-27 20:00N 31°36' E 121°27'0 0.0
2018-May-27 19:24N 31°36' E 121°27'0 0.0
2018-May-27 19:00N 31°36' E 121°27'0 0.0
2018-May-27 18:30N 31°36' E 121°27'0 0.0
2018-May-27 18:00N 31°36' E 121°27'0 0.0
2018-May-27 17:18N 31°36' E 121°27'0 0.0
2018-May-27 16:57N 31°36' E 121°27'0 0.0
2018-May-27 16:24N 31°36' E 121°27'0 0.0
2018-May-27 15:45N 31°36' E 121°27'0 0.0
2018-May-27 15:30N 31°36' E 121°27'0 0.0
2018-May-27 14:54N 31°36' E 121°27'0 0.0
2018-May-27 14:30N 31°36' E 121°27'0 0.0
2018-May-27 14:00N 31°36' E 121°27'0 0.0
2018-May-27 13:30N 31°36' E 121°27'0 0.0
2018-May-27 12:48N 31°36' E 121°27'0 0.0
2018-May-27 12:30N 31°36' E 121°27'0 0.0
2018-May-27 12:00N 31°36' E 121°27'0 0.1
2018-May-27 11:30N 31°36' E 121°27'0 0.7
2018-May-27 11:00N 31°35' E 121°27'0 0.4
2018-May-27 10:29N 31°36' E 121°27'0 0.0
2018-May-27 09:59N 31°36' E 121°27'0 0.0
2018-May-27 09:29N 31°36' E 121°27'0 0.0
2018-May-27 08:59N 31°36' E 121°27'0 0.0
2018-May-27 08:29N 31°36' E 121°27'0 0.0
2018-May-27 07:59N 31°36' E 121°27'0 0.0
2018-May-27 07:29N 31°36' E 121°27'0 0.0
2018-May-27 06:59N 31°36' E 121°27'0 0.0
2018-May-27 06:29N 31°36' E 121°27'0 0.0
2018-May-27 05:59N 31°36' E 121°27'0 0.0
2018-May-27 05:23N 31°36' E 121°27'0 0.0
2018-May-27 04:59N 31°36' E 121°27'0 0.0
2018-May-27 04:29N 31°36' E 121°27'0 0.0
2018-May-27 03:59N 31°36' E 121°27'0 0.0
2018-May-27 03:29N 31°36' E 121°27'0 0.0
2018-May-27 02:59N 31°36' E 121°27'0 0.0
2018-May-27 02:29N 31°36' E 121°27'0 0.0
2018-May-27 01:53N 31°36' E 121°27'0 0.0
2018-May-27 01:29N 31°36' E 121°27'0 0.0
2018-May-27 00:56N 31°36' E 121°27'0 0.0
2018-May-27 00:29N 31°36' E 121°27'0 0.0
2018-May-26 23:59N 31°36' E 121°27'0 0.0
2018-May-26 23:29N 31°36' E 121°27'0 0.0
2018-May-26 22:59N 31°36' E 121°27'0 0.0
2018-May-26 22:29N 31°36' E 121°27'0 0.0
2018-May-26 21:59N 31°36' E 121°27'0 0.0
2018-May-26 21:29N 31°36' E 121°27'0 0.0
2018-May-26 20:59N 31°36' E 121°27'0 0.0
2018-May-26 20:23N 31°36' E 121°27'0 0.0
2018-May-26 19:59N 31°36' E 121°27'0 0.0
2018-May-26 19:29N 31°36' E 121°27'0 0.0
2018-May-26 18:56N 31°36' E 121°27'0 0.0
2018-May-26 18:26N 31°36' E 121°27'0 0.0
2018-May-26 17:59N 31°36' E 121°27'0 0.0
2018-May-26 17:29N 31°36' E 121°27'0 0.0
2018-May-26 16:59N 31°36' E 121°27'0 0.0
2018-May-26 16:29N 31°36' E 121°27'0 0.0
2018-May-26 15:59N 31°36' E 121°27'0 0.0
2018-May-26 15:30N 31°36' E 121°27'0 0.0
2018-May-26 14:59N 31°36' E 121°27'0 0.0
2018-May-26 14:29N 31°36' E 121°27'0 0.0
2018-May-26 13:59N 31°36' E 121°27'0 0.0
2018-May-26 13:29N 31°36' E 121°27'0 0.0
2018-May-26 12:59N 31°36' E 121°27'0 0.0
2018-May-26 12:29N 31°36' E 121°27'0 0.0
2018-May-26 11:56N 31°36' E 121°27'0 0.0
2018-May-26 11:29N 31°36' E 121°27'0 0.0
2018-May-26 10:59N 31°36' E 121°27'0 0.0
2018-May-26 10:23N 31°36' E 121°27'0 0.0
2018-May-26 09:59N 31°36' E 121°27'0 0.0
2018-May-26 09:29N 31°36' E 121°27'0 0.0
2018-May-26 08:56N 31°36' E 121°27'0 0.0
2018-May-26 08:29N 31°36' E 121°27'0 0.0
2018-May-26 07:59N 31°36' E 121°27'0 0.0
2018-May-26 07:29N 31°36' E 121°27'0 0.0
2018-May-26 06:59N 31°36' E 121°27'0 0.0
2018-May-26 06:29N 31°36' E 121°27'0 0.0
2018-May-26 05:23N 31°36' E 121°27'0 0.0
2018-May-26 04:56N 31°36' E 121°27'0 0.0
2018-May-26 04:29N 31°36' E 121°27'0 0.0
2018-May-26 03:59N 31°36' E 121°27'0 0.0
2018-May-26 03:29N 31°36' E 121°27'0 0.0
2018-May-26 02:59N 31°36' E 121°27'0 0.0
2018-May-26 02:29N 31°36' E 121°27'0 0.0
2018-May-26 01:59N 31°36' E 121°27'0 0.0
2018-May-26 01:29N 31°36' E 121°27'0 0.0
2018-May-26 00:59N 31°36' E 121°27'0 0.0
2018-May-26 00:29N 31°36' E 121°27'0 0.0
2018-May-25 23:56N 31°36' E 121°27'0 0.0
2018-May-25 23:29N 31°36' E 121°27'0 0.0
2018-May-25 22:59N 31°36' E 121°27'0 0.0
2018-May-25 22:29N 31°36' E 121°27'0 0.0
2018-May-25 21:59N 31°36' E 121°27'0 0.0
2018-May-25 21:29N 31°36' E 121°27'0 0.0
2018-May-25 20:59N 31°36' E 121°27'0 0.0
2018-May-25 20:29N 31°36' E 121°27'0 0.0
2018-May-25 19:59N 31°36' E 121°27'0 0.0
2018-May-25 19:29N 31°36' E 121°27'0 0.0
2018-May-25 18:53N 31°36' E 121°27'0 0.0
2018-May-25 18:29N 31°36' E 121°27'0 0.0
2018-May-25 17:59N 31°36' E 121°27'0 0.0
2018-May-25 17:26N 31°36' E 121°27'0 0.0
2018-May-25 16:59N 31°36' E 121°27'0 0.0
2018-May-25 16:29N 31°36' E 121°27'0 0.0
2018-May-25 15:59N 31°36' E 121°27'0 0.0
2018-May-25 15:26N 31°36' E 121°27'0 0.0
2018-May-25 14:59N 31°36' E 121°27'0 0.0
2018-May-25 14:29N 31°36' E 121°27'0 0.0
2018-May-25 13:59N 31°36' E 121°27'0 0.0
2018-May-25 13:29N 31°36' E 121°27'0 0.0
2018-May-25 12:59N 31°36' E 121°27'0 0.0
2018-May-25 12:17N 31°36' E 121°27'0 0.0
2018-May-25 11:59N 31°36' E 121°27'0 0.0
2018-May-25 11:29N 31°36' E 121°27'0 0.0
2018-May-25 10:59N 31°36' E 121°27'0 0.0
2018-May-25 10:29N 31°36' E 121°27'0 0.0
2018-May-25 09:59N 31°36' E 121°27'0 0.0
2018-May-25 09:29N 31°36' E 121°27'0 0.0
2018-May-25 08:59N 31°36' E 121°27'0 0.0
2018-May-25 08:29N 31°36' E 121°27'0 0.0
2018-May-25 07:59N 31°36' E 121°27'0 0.0
2018-May-25 07:29N 31°36' E 121°27'0 0.0
2018-May-25 06:59N 31°36' E 121°27'0 0.0
2018-May-25 06:29N 31°36' E 121°27'0 0.0
2018-May-25 05:56N 31°36' E 121°27'0 0.0
2018-May-25 05:29N 31°36' E 121°27'0 0.0
2018-May-25 04:59N 31°36' E 121°27'0 0.0
2018-May-25 03:47N 31°36' E 121°27'0 0.0
2018-May-25 03:29N 31°36' E 121°27'0 0.0
2018-May-25 02:59N 31°36' E 121°27'0 0.0
2018-May-25 02:29N 31°36' E 121°27'0 0.0
2018-May-25 01:59N 31°36' E 121°27'0 0.0
2018-May-25 01:29N 31°36' E 121°27'0 0.0
2018-May-25 00:59N 31°36' E 121°27'0 0.0
2018-May-25 00:29N 31°36' E 121°27'0 0.0
2018-May-24 23:56N 31°36' E 121°27'0 0.0
2018-May-24 23:29N 31°36' E 121°27'0 0.0
2018-May-24 22:59N 31°36' E 121°27'0 0.0
2018-May-24 22:29N 31°36' E 121°27'0 0.0
2018-May-24 21:59N 31°36' E 121°27'0 0.0
2018-May-24 21:29N 31°36' E 121°27'0 0.0
2018-May-24 20:59N 31°36' E 121°27'0 0.0
2018-May-24 20:29N 31°36' E 121°27'0 0.0
2018-May-24 19:53N 31°36' E 121°27'0 0.0
2018-May-24 19:29N 31°36' E 121°27'0 0.0
2018-May-24 18:56N 31°36' E 121°27'0 0.0
2018-May-24 18:29N 31°36' E 121°27'0 0.0
2018-May-24 17:59N 31°36' E 121°27'0 0.0
2018-May-24 17:23N 31°36' E 121°27'0 0.0
2018-May-24 16:53N 31°36' E 121°27'0 0.0
2018-May-24 16:29N 31°36' E 121°27'0 0.0
2018-May-24 15:59N 31°36' E 121°27'0 0.0
2018-May-24 15:17N 31°36' E 121°27'0 0.0
2018-May-24 14:47N 31°36' E 121°27'0 0.0
2018-May-24 14:29N 31°36' E 121°27'0 0.0
2018-May-24 13:59N 31°36' E 121°27'0 0.0
2018-May-24 08:57N 31°36' E 121°27'0 0.0
2018-May-24 08:27N 31°36' E 121°27'0 0.0
2018-May-24 07:45N 31°36' E 121°27'0 0.0
2018-May-24 07:27N 31°36' E 121°27'0 0.0
2018-May-24 06:57N 31°36' E 121°27'0 0.0
2018-May-24 06:30N 31°36' E 121°27'0 0.0
2018-May-24 05:57N 31°36' E 121°27'0 0.0
2018-May-24 05:30N 31°36' E 121°27'0 0.0
2018-May-24 05:00N 31°36' E 121°27'0 0.0
2018-May-24 04:30N 31°36' E 121°27'0 0.0
2018-May-24 04:00N 31°36' E 121°27'0 0.0
2018-May-24 03:27N 31°36' E 121°27'0 0.0
2018-May-24 02:57N 31°36' E 121°27'0 0.0
2018-May-24 02:24N 31°36' E 121°27'0 0.0
2018-May-24 02:00N 31°36' E 121°27'0 0.0
2018-May-24 01:27N 31°36' E 121°27'0 0.0
2018-May-24 01:00N 31°36' E 121°27'0 0.0
2018-May-24 00:27N 31°36' E 121°27'0 0.0
2018-May-24 00:00N 31°36' E 121°27'0 0.0
2018-May-23 23:30N 31°36' E 121°27'0 0.0
2018-May-23 22:57N 31°36' E 121°27'0 0.0
2018-May-23 22:30N 31°36' E 121°27'0 0.0
2018-May-23 22:00N 31°36' E 121°27'0 0.0
2018-May-23 21:30N 31°36' E 121°27'0 0.0
2018-May-23 20:57N 31°36' E 121°27'0 0.0
2018-May-23 20:30N 31°36' E 121°27'0 0.0
2018-May-23 19:54N 31°36' E 121°27'0 0.0
2018-May-23 19:30N 31°36' E 121°27'0 0.0
2018-May-23 18:57N 31°36' E 121°27'0 0.0
2018-May-23 18:30N 31°36' E 121°27'0 0.0
2018-May-23 17:57N 31°36' E 121°27'0 0.0
2018-May-23 17:18N 31°36' E 121°27'0 0.0
2018-May-23 17:00N 31°36' E 121°27'0 0.0
2018-May-23 16:30N 31°36' E 121°27'0 0.0
2018-May-23 16:00N 31°36' E 121°27'0 0.0
2018-May-23 15:27N 31°36' E 121°27'0 0.0
2018-May-23 15:00N 31°36' E 121°27'0 0.0
2018-May-23 14:27N 31°36' E 121°27'0 0.0
2018-May-23 14:00N 31°36' E 121°27'0 0.0
2018-May-23 13:30N 31°36' E 121°27'0 0.0
2018-May-23 13:00N 31°36' E 121°27'0 0.0
2018-May-23 12:30N 31°36' E 121°27'0 0.0
2018-May-23 11:48N 31°36' E 121°27'0 0.0
2018-May-23 11:30N 31°36' E 121°27'0 0.0
2018-May-23 10:57N 31°36' E 121°27'0 0.0
2018-May-23 10:27N 31°36' E 121°27'0 0.0
2018-May-23 10:00N 31°36' E 121°27'0 0.0
2018-May-23 09:27N 31°36' E 121°27'0 0.0
2018-May-23 09:00N 31°36' E 121°27'0 0.0
2018-May-23 08:30N 31°36' E 121°27'0 0.0
2018-May-23 07:39N 31°36' E 121°27'0 0.0
2018-May-23 07:30N 31°36' E 121°27'0 0.0
2018-May-23 07:00N 31°36' E 121°27'0 0.0
2018-May-23 06:30N 31°36' E 121°27'0 0.0
2018-May-23 06:00N 31°36' E 121°27'0 0.0
2018-May-23 05:30N 31°36' E 121°27'0 0.0
2018-May-23 05:00N 31°36' E 121°27'0 0.0
2018-May-23 04:21N 31°36' E 121°27'0 0.0
2018-May-23 03:57N 31°36' E 121°27'0 0.0
2018-May-23 03:30N 31°36' E 121°27'0 0.0
2018-May-23 03:00N 31°36' E 121°27'0 0.0
2018-May-23 02:27N 31°36' E 121°27'0 0.0
2018-May-23 02:00N 31°36' E 121°27'0 0.0
2018-May-23 01:30N 31°36' E 121°27'0 0.0
2018-May-23 01:00N 31°36' E 121°27'0 0.0
2018-May-23 00:27N 31°36' E 121°27'0 0.0
2018-May-22 23:57N 31°36' E 121°27'0 0.0
2018-May-22 23:30N 31°36' E 121°27'0 0.0
2018-May-22 23:00N 31°36' E 121°27'0 0.0
2018-May-22 22:27N 31°36' E 121°27'0 0.0
2018-May-22 22:00N 31°36' E 121°27'0 0.0
2018-May-22 21:27N 31°36' E 121°27'0 0.0
2018-May-22 20:57N 31°36' E 121°27'0 0.0
2018-May-22 20:30N 31°36' E 121°27'0 0.0
2018-May-22 20:00N 31°36' E 121°27'0 0.0
2018-May-22 19:27N 31°36' E 121°27'0 0.0
2018-May-22 18:57N 31°36' E 121°27'0 0.0
2018-May-22 18:30N 31°36' E 121°27'0 0.0
2018-May-22 18:00N 31°36' E 121°27'0 0.0
2018-May-22 17:27N 31°36' E 121°27'0 0.0
2018-May-22 17:00N 31°36' E 121°27'0 0.0
2018-May-22 16:30N 31°36' E 121°27'0 0.0
2018-May-22 16:00N 31°36' E 121°27'0 0.0
2018-May-22 15:27N 31°36' E 121°27'0 0.0
2018-May-22 14:57N 31°36' E 121°27'0 0.0
2018-May-22 14:27N 31°36' E 121°27'0 0.0
2018-May-22 13:57N 31°36' E 121°27'0 0.0
2018-May-22 13:21N 31°36' E 121°27'0 0.0
2018-May-22 13:00N 31°36' E 121°27'0 0.0
2018-May-22 12:30N 31°36' E 121°27'0 0.0
2018-May-22 12:00N 31°36' E 121°27'0 0.0
2018-May-22 11:30N 31°36' E 121°27'0 0.0
2018-May-22 10:54N 31°36' E 121°27'0 0.0
2018-May-22 10:30N 31°36' E 121°27'0 0.0
2018-May-22 09:57N 31°36' E 121°27'0 0.0
2018-May-22 09:30N 31°36' E 121°27'0 0.0
2018-May-22 09:00N 31°36' E 121°27'0 0.0
2018-May-22 01:18N 31°36' E 121°27'0 0.0
2018-May-22 00:57N 31°36' E 121°27'0 0.0
2018-May-22 00:24N 31°36' E 121°27'0 0.0
2018-May-22 00:00N 31°36' E 121°27'0 0.0
2018-May-21 23:27N 31°36' E 121°27'0 0.0
2018-May-21 22:57N 31°36' E 121°27'0 0.0
2018-May-21 22:30N 31°36' E 121°27'0 0.0
2018-May-21 21:57N 31°36' E 121°27'0 0.0
2018-May-21 21:27N 31°36' E 121°27'0 0.0
2018-May-21 20:57N 31°36' E 121°27'0 0.0
2018-May-21 20:30N 31°36' E 121°27'0 0.0
2018-May-21 19:57N 31°36' E 121°27'0 0.0
2018-May-21 19:30N 31°36' E 121°27'0 0.0
2018-May-21 18:57N 31°36' E 121°27'0 0.0
2018-May-21 18:30N 31°36' E 121°27'0 0.0
2018-May-21 17:57N 31°36' E 121°27'0 0.0
2018-May-21 17:27N 31°36' E 121°27'0 0.0
2018-May-21 16:57N 31°36' E 121°27'0 0.0
2018-May-21 16:30N 31°36' E 121°27'0 0.0
2018-May-21 15:51N 31°36' E 121°27'0 0.0
2018-May-21 15:30N 31°36' E 121°27'0 0.1
2018-May-21 14:57N 31°36' E 121°27'  
Track history (hours):
 
Tides and Currents Weather Stations Pressure Air Temp Water Temp Dewpoint Dewpoint Depression Visibility Wind Speed Wind Dir Waves Ship Positions

Coral Sapphire

Last reported at 2018-May-31 14:35 UTC. Time now 2018-Jul-23 00:02 UTC.
Position N 31°05' E 122°56'.
Warning: this ship's position is 52 days out of date.

Length 225 m; draft 7 m.

Type: Cargo ship. MMSI: 371979000.

Date/timePositionNaut miles runAvg speedWind from/ knotsBaromVisibWave heightAir tempDewpointWater temp
2018-May-31 14:35N 31°05' E 122°56'1010.7
2018-May-31 13:37N 31°05' E 122°43'10 9.9
2018-May-31 12:38N 31°04' E 122°32'3 8.9
2018-May-31 12:17N 31°05' E 122°28'2 7.6
2018-May-31 11:58N 31°05' E 122°26'3 6.0
2018-May-31 11:30N 31°06' E 122°23'4 8.0
2018-May-31 11:00N 31°06' E 122°18'712.8
2018-May-31 10:26N 31°11' E 122°11'614.6
2018-May-31 10:00N 31°14' E 122°05'715.1
2018-May-31 09:30N 31°15' E 121°56'815.2
2018-May-31 08:59N 31°18' E 121°47'1512.2
2018-May-31 07:47N 31°24' E 121°32'311.0
2018-May-31 07:30N 31°26' E 121°29'5 9.8
2018-May-31 07:00N 31°30' E 121°26'4 8.7
2018-May-31 06:30N 31°30' E 121°31'611.2
2018-May-31 06:00N 31°29' E 121°37'1 2.5
2018-May-31 05:30N 31°30' E 121°38'4 8.8
2018-May-31 05:00N 31°32' E 121°33'4 7.6
2018-May-31 04:30N 31°34' E 121°29'0 0.0
2018-May-30 17:09N 31°34' E 121°29'0 0.0
2018-May-30 16:57N 31°34' E 121°29'0 0.0
2018-May-30 15:33N 31°34' E 121°29'0 0.0
2018-May-30 15:03N 31°34' E 121°29'0 0.0
2018-May-30 14:42N 31°34' E 121°29'0 0.0
2018-May-30 14:27N 31°34' E 121°29'  
2018-May-28 07:15N 31°36' E 121°27'0 0.0
2018-May-28 07:00N 31°36' E 121°27'0 0.0
2018-May-28 06:30N 31°36' E 121°27'0 0.0
2018-May-28 06:00N 31°36' E 121°27'0 0.0
2018-May-28 05:30N 31°36' E 121°27'0 0.0
2018-May-28 05:00N 31°36' E 121°27'0 0.0
2018-May-28 04:30N 31°36' E 121°27'0 0.0
2018-May-28 04:00N 31°36' E 121°27'0 0.0
2018-May-28 03:30N 31°36' E 121°27'0 0.0
2018-May-28 02:54N 31°36' E 121°27'0 0.0
2018-May-28 02:30N 31°36' E 121°27'0 0.0
2018-May-28 02:00N 31°36' E 121°27'0 0.0
2018-May-28 01:30N 31°36' E 121°27'0 0.0
2018-May-28 01:00N 31°36' E 121°27'0 0.0
2018-May-28 00:30N 31°36' E 121°27'0 0.0
2018-May-27 23:57N 31°36' E 121°27'0 0.0
2018-May-27 23:27N 31°36' E 121°27'0 0.0
2018-May-27 23:00N 31°36' E 121°27'0 0.0
2018-May-27 22:30N 31°36' E 121°27'0 0.0
2018-May-27 22:00N 31°36' E 121°27'0 0.0
2018-May-27 21:30N 31°36' E 121°27'0 0.0
2018-May-27 21:00N 31°36' E 121°27'0 0.0
2018-May-27 20:24N 31°36' E 121°27'0 0.0
2018-May-27 20:00N 31°36' E 121°27'0 0.0
2018-May-27 19:24N 31°36' E 121°27'0 0.0
2018-May-27 19:00N 31°36' E 121°27'0 0.0
2018-May-27 18:30N 31°36' E 121°27'0 0.0
2018-May-27 18:00N 31°36' E 121°27'0 0.0
2018-May-27 17:18N 31°36' E 121°27'0 0.0
2018-May-27 16:57N 31°36' E 121°27'0 0.0
2018-May-27 16:24N 31°36' E 121°27'0 0.0
2018-May-27 15:45N 31°36' E 121°27'0 0.0
2018-May-27 15:30N 31°36' E 121°27'0 0.0
2018-May-27 14:54N 31°36' E 121°27'0 0.0
2018-May-27 14:30N 31°36' E 121°27'0 0.0
2018-May-27 14:00N 31°36' E 121°27'0 0.0
2018-May-27 13:30N 31°36' E 121°27'0 0.0
2018-May-27 12:48N 31°36' E 121°27'0 0.0
2018-May-27 12:30N 31°36' E 121°27'0 0.0
2018-May-27 12:00N 31°36' E 121°27'0 0.1
2018-May-27 11:30N 31°36' E 121°27'0 0.7
2018-May-27 11:00N 31°35' E 121°27'0 0.4
2018-May-27 10:29N 31°36' E 121°27'0 0.0
2018-May-27 09:59N 31°36' E 121°27'0 0.0
2018-May-27 09:29N 31°36' E 121°27'0 0.0
2018-May-27 08:59N 31°36' E 121°27'0 0.0
2018-May-27 08:29N 31°36' E 121°27'0 0.0
2018-May-27 07:59N 31°36' E 121°27'0 0.0
2018-May-27 07:29N 31°36' E 121°27'0 0.0
2018-May-27 06:59N 31°36' E 121°27'0 0.0
2018-May-27 06:29N 31°36' E 121°27'0 0.0
2018-May-27 05:59N 31°36' E 121°27'0 0.0
2018-May-27 05:23N 31°36' E 121°27'0 0.0
2018-May-27 04:59N 31°36' E 121°27'0 0.0
2018-May-27 04:29N 31°36' E 121°27'0 0.0
2018-May-27 03:59N 31°36' E 121°27'0 0.0
2018-May-27 03:29N 31°36' E 121°27'0 0.0
2018-May-27 02:59N 31°36' E 121°27'0 0.0
2018-May-27 02:29N 31°36' E 121°27'0 0.0
2018-May-27 01:53N 31°36' E 121°27'0 0.0
2018-May-27 01:29N 31°36' E 121°27'0 0.0
2018-May-27 00:56N 31°36' E 121°27'0 0.0
2018-May-27 00:29N 31°36' E 121°27'0 0.0
2018-May-26 23:59N 31°36' E 121°27'0 0.0
2018-May-26 23:29N 31°36' E 121°27'0 0.0
2018-May-26 22:59N 31°36' E 121°27'0 0.0
2018-May-26 22:29N 31°36' E 121°27'0 0.0
2018-May-26 21:59N 31°36' E 121°27'0 0.0
2018-May-26 21:29N 31°36' E 121°27'0 0.0
2018-May-26 20:59N 31°36' E 121°27'0 0.0
2018-May-26 20:23N 31°36' E 121°27'0 0.0
2018-May-26 19:59N 31°36' E 121°27'0 0.0
2018-May-26 19:29N 31°36' E 121°27'0 0.0
2018-May-26 18:56N 31°36' E 121°27'0 0.0
2018-May-26 18:26N 31°36' E 121°27'0 0.0
2018-May-26 17:59N 31°36' E 121°27'0 0.0
2018-May-26 17:29N 31°36' E 121°27'0 0.0
2018-May-26 16:59N 31°36' E 121°27'0 0.0
2018-May-26 16:29N 31°36' E 121°27'0 0.0
2018-May-26 15:59N 31°36' E 121°27'0 0.0
2018-May-26 15:30N 31°36' E 121°27'0 0.0
2018-May-26 14:59N 31°36' E 121°27'0 0.0
2018-May-26 14:29N 31°36' E 121°27'0 0.0
2018-May-26 13:59N 31°36' E 121°27'0 0.0
2018-May-26 13:29N 31°36' E 121°27'0 0.0
2018-May-26 12:59N 31°36' E 121°27'0 0.0
2018-May-26 12:29N 31°36' E 121°27'0 0.0
2018-May-26 11:56N 31°36' E 121°27'0 0.0
2018-May-26 11:29N 31°36' E 121°27'0 0.0
2018-May-26 10:59N 31°36' E 121°27'0 0.0
2018-May-26 10:23N 31°36' E 121°27'0 0.0
2018-May-26 09:59N 31°36' E 121°27'0 0.0
2018-May-26 09:29N 31°36' E 121°27'0 0.0
2018-May-26 08:56N 31°36' E 121°27'0 0.0
2018-May-26 08:29N 31°36' E 121°27'0 0.0
2018-May-26 07:59N 31°36' E 121°27'0 0.0
2018-May-26 07:29N 31°36' E 121°27'0 0.0
2018-May-26 06:59N 31°36' E 121°27'0 0.0
2018-May-26 06:29N 31°36' E 121°27'0 0.0
2018-May-26 05:23N 31°36' E 121°27'0 0.0
2018-May-26 04:56N 31°36' E 121°27'0 0.0
2018-May-26 04:29N 31°36' E 121°27'0 0.0
2018-May-26 03:59N 31°36' E 121°27'0 0.0
2018-May-26 03:29N 31°36' E 121°27'0 0.0
2018-May-26 02:59N 31°36' E 121°27'0 0.0
2018-May-26 02:29N 31°36' E 121°27'0 0.0
2018-May-26 01:59N 31°36' E 121°27'0 0.0
2018-May-26 01:29N 31°36' E 121°27'0 0.0
2018-May-26 00:59N 31°36' E 121°27'0 0.0
2018-May-26 00:29N 31°36' E 121°27'0 0.0
2018-May-25 23:56N 31°36' E 121°27'0 0.0
2018-May-25 23:29N 31°36' E 121°27'0 0.0
2018-May-25 22:59N 31°36' E 121°27'0 0.0
2018-May-25 22:29N 31°36' E 121°27'0 0.0
2018-May-25 21:59N 31°36' E 121°27'0 0.0
2018-May-25 21:29N 31°36' E 121°27'0 0.0
2018-May-25 20:59N 31°36' E 121°27'0 0.0
2018-May-25 20:29N 31°36' E 121°27'0 0.0
2018-May-25 19:59N 31°36' E 121°27'0 0.0
2018-May-25 19:29N 31°36' E 121°27'0 0.0
2018-May-25 18:53N 31°36' E 121°27'0 0.0
2018-May-25 18:29N 31°36' E 121°27'0 0.0
2018-May-25 17:59N 31°36' E 121°27'0 0.0
2018-May-25 17:26N 31°36' E 121°27'0 0.0
2018-May-25 16:59N 31°36' E 121°27'0 0.0
2018-May-25 16:29N 31°36' E 121°27'0 0.0
2018-May-25 15:59N 31°36' E 121°27'0 0.0
2018-May-25 15:26N 31°36' E 121°27'0 0.0
2018-May-25 14:59N 31°36' E 121°27'0 0.0
2018-May-25 14:29N 31°36' E 121°27'0 0.0
2018-May-25 13:59N 31°36' E 121°27'0 0.0
2018-May-25 13:29N 31°36' E 121°27'0 0.0
2018-May-25 12:59N 31°36' E 121°27'0 0.0
2018-May-25 12:17N 31°36' E 121°27'0 0.0
2018-May-25 11:59N 31°36' E 121°27'0 0.0
2018-May-25 11:29N 31°36' E 121°27'0 0.0
2018-May-25 10:59N 31°36' E 121°27'0 0.0
2018-May-25 10:29N 31°36' E 121°27'0 0.0
2018-May-25 09:59N 31°36' E 121°27'0 0.0
2018-May-25 09:29N 31°36' E 121°27'0 0.0
2018-May-25 08:59N 31°36' E 121°27'0 0.0
2018-May-25 08:29N 31°36' E 121°27'0 0.0
2018-May-25 07:59N 31°36' E 121°27'0 0.0
2018-May-25 07:29N 31°36' E 121°27'0 0.0
2018-May-25 06:59N 31°36' E 121°27'0 0.0
2018-May-25 06:29N 31°36' E 121°27'0 0.0
2018-May-25 05:56N 31°36' E 121°27'0 0.0
2018-May-25 05:29N 31°36' E 121°27'0 0.0
2018-May-25 04:59N 31°36' E 121°27'0 0.0
2018-May-25 03:47N 31°36' E 121°27'0 0.0
2018-May-25 03:29N 31°36' E 121°27'0 0.0
2018-May-25 02:59N 31°36' E 121°27'0 0.0
2018-May-25 02:29N 31°36' E 121°27'0 0.0
2018-May-25 01:59N 31°36' E 121°27'0 0.0
2018-May-25 01:29N 31°36' E 121°27'0 0.0
2018-May-25 00:59N 31°36' E 121°27'0 0.0
2018-May-25 00:29N 31°36' E 121°27'0 0.0
2018-May-24 23:56N 31°36' E 121°27'0 0.0
2018-May-24 23:29N 31°36' E 121°27'0 0.0
2018-May-24 22:59N 31°36' E 121°27'0 0.0
2018-May-24 22:29N 31°36' E 121°27'0 0.0
2018-May-24 21:59N 31°36' E 121°27'0 0.0
2018-May-24 21:29N 31°36' E 121°27'0 0.0
2018-May-24 20:59N 31°36' E 121°27'0 0.0
2018-May-24 20:29N 31°36' E 121°27'0 0.0
2018-May-24 19:53N 31°36' E 121°27'0 0.0
2018-May-24 19:29N 31°36' E 121°27'0 0.0
2018-May-24 18:56N 31°36' E 121°27'0 0.0
2018-May-24 18:29N 31°36' E 121°27'0 0.0
2018-May-24 17:59N 31°36' E 121°27'0 0.0
2018-May-24 17:23N 31°36' E 121°27'0 0.0
2018-May-24 16:53N 31°36' E 121°27'0 0.0
2018-May-24 16:29N 31°36' E 121°27'0 0.0
2018-May-24 15:59N 31°36' E 121°27'0 0.0
2018-May-24 15:17N 31°36' E 121°27'0 0.0
2018-May-24 14:47N 31°36' E 121°27'0 0.0
2018-May-24 14:29N 31°36' E 121°27'0 0.0
2018-May-24 13:59N 31°36' E 121°27'0 0.0
2018-May-24 08:57N 31°36' E 121°27'0 0.0
2018-May-24 08:27N 31°36' E 121°27'0 0.0
2018-May-24 07:45N 31°36' E 121°27'0 0.0
2018-May-24 07:27N 31°36' E 121°27'0 0.0
2018-May-24 06:57N 31°36' E 121°27'0 0.0
2018-May-24 06:30N 31°36' E 121°27'0 0.0
2018-May-24 05:57N 31°36' E 121°27'0 0.0
2018-May-24 05:30N 31°36' E 121°27'0 0.0
2018-May-24 05:00N 31°36' E 121°27'0 0.0
2018-May-24 04:30N 31°36' E 121°27'0 0.0
2018-May-24 04:00N 31°36' E 121°27'0 0.0
2018-May-24 03:27N 31°36' E 121°27'0 0.0
2018-May-24 02:57N 31°36' E 121°27'0 0.0
2018-May-24 02:24N 31°36' E 121°27'0 0.0
2018-May-24 02:00N 31°36' E 121°27'0 0.0
2018-May-24 01:27N 31°36' E 121°27'0 0.0
2018-May-24 01:00N 31°36' E 121°27'0 0.0
2018-May-24 00:27N 31°36' E 121°27'0 0.0
2018-May-24 00:00N 31°36' E 121°27'0 0.0
2018-May-23 23:30N 31°36' E 121°27'0 0.0
2018-May-23 22:57N 31°36' E 121°27'0 0.0
2018-May-23 22:30N 31°36' E 121°27'0 0.0
2018-May-23 22:00N 31°36' E 121°27'0 0.0
2018-May-23 21:30N 31°36' E 121°27'0 0.0
2018-May-23 20:57N 31°36' E 121°27'0 0.0
2018-May-23 20:30N 31°36' E 121°27'0 0.0
2018-May-23 19:54N 31°36' E 121°27'0 0.0
2018-May-23 19:30N 31°36' E 121°27'0 0.0
2018-May-23 18:57N 31°36' E 121°27'0 0.0
2018-May-23 18:30N 31°36' E 121°27'0 0.0
2018-May-23 17:57N 31°36' E 121°27'0 0.0
2018-May-23 17:18N 31°36' E 121°27'0 0.0
2018-May-23 17:00N 31°36' E 121°27'0 0.0
2018-May-23 16:30N 31°36' E 121°27'0 0.0
2018-May-23 16:00N 31°36' E 121°27'0 0.0
2018-May-23 15:27N 31°36' E 121°27'0 0.0
2018-May-23 15:00N 31°36' E 121°27'0 0.0
2018-May-23 14:27N 31°36' E 121°27'0 0.0
2018-May-23 14:00N 31°36' E 121°27'0 0.0
2018-May-23 13:30N 31°36' E 121°27'0 0.0
2018-May-23 13:00N 31°36' E 121°27'0 0.0
2018-May-23 12:30N 31°36' E 121°27'0 0.0
2018-May-23 11:48N 31°36' E 121°27'0 0.0
2018-May-23 11:30N 31°36' E 121°27'0 0.0
2018-May-23 10:57N 31°36' E 121°27'0 0.0
2018-May-23 10:27N 31°36' E 121°27'0 0.0
2018-May-23 10:00N 31°36' E 121°27'0 0.0
2018-May-23 09:27N 31°36' E 121°27'0 0.0
2018-May-23 09:00N 31°36' E 121°27'0 0.0
2018-May-23 08:30N 31°36' E 121°27'0 0.0
2018-May-23 07:39N 31°36' E 121°27'0 0.0
2018-May-23 07:30N 31°36' E 121°27'0 0.0
2018-May-23 07:00N 31°36' E 121°27'0 0.0
2018-May-23 06:30N 31°36' E 121°27'0 0.0
2018-May-23 06:00N 31°36' E 121°27'0 0.0
2018-May-23 05:30N 31°36' E 121°27'0 0.0
2018-May-23 05:00N 31°36' E 121°27'0 0.0
2018-May-23 04:21N 31°36' E 121°27'0 0.0
2018-May-23 03:57N 31°36' E 121°27'0 0.0
2018-May-23 03:30N 31°36' E 121°27'0 0.0
2018-May-23 03:00N 31°36' E 121°27'0 0.0
2018-May-23 02:27N 31°36' E 121°27'0 0.0
2018-May-23 02:00N 31°36' E 121°27'0 0.0
2018-May-23 01:30N 31°36' E 121°27'0 0.0
2018-May-23 01:00N 31°36' E 121°27'0 0.0
2018-May-23 00:27N 31°36' E 121°27'0 0.0
2018-May-22 23:57N 31°36' E 121°27'0 0.0
2018-May-22 23:30N 31°36' E 121°27'0 0.0
2018-May-22 23:00N 31°36' E 121°27'0 0.0
2018-May-22 22:27N 31°36' E 121°27'0 0.0
2018-May-22 22:00N 31°36' E 121°27'0 0.0
2018-May-22 21:27N 31°36' E 121°27'0 0.0
2018-May-22 20:57N 31°36' E 121°27'0 0.0
2018-May-22 20:30N 31°36' E 121°27'0 0.0
2018-May-22 20:00N 31°36' E 121°27'0 0.0
2018-May-22 19:27N 31°36' E 121°27'0 0.0
2018-May-22 18:57N 31°36' E 121°27'0 0.0
2018-May-22 18:30N 31°36' E 121°27'0 0.0
2018-May-22 18:00N 31°36' E 121°27'0 0.0
2018-May-22 17:27N 31°36' E 121°27'0 0.0
2018-May-22 17:00N 31°36' E 121°27'0 0.0
2018-May-22 16:30N 31°36' E 121°27'0 0.0
2018-May-22 16:00N 31°36' E 121°27'0 0.0
2018-May-22 15:27N 31°36' E 121°27'0 0.0
2018-May-22 14:57N 31°36' E 121°27'0 0.0
2018-May-22 14:27N 31°36' E 121°27'0 0.0
2018-May-22 13:57N 31°36' E 121°27'0 0.0
2018-May-22 13:21N 31°36' E 121°27'0 0.0
2018-May-22 13:00N 31°36' E 121°27'0 0.0
2018-May-22 12:30N 31°36' E 121°27'0 0.0
2018-May-22 12:00N 31°36' E 121°27'0 0.0
2018-May-22 11:30N 31°36' E 121°27'0 0.0
2018-May-22 10:54N 31°36' E 121°27'0 0.0
2018-May-22 10:30N 31°36' E 121°27'0 0.0
2018-May-22 09:57N 31°36' E 121°27'0 0.0
2018-May-22 09:30N 31°36' E 121°27'0 0.0
2018-May-22 09:00N 31°36' E 121°27'0 0.0
2018-May-22 01:18N 31°36' E 121°27'0 0.0
2018-May-22 00:57N 31°36' E 121°27'0 0.0
2018-May-22 00:24N 31°36' E 121°27'0 0.0
2018-May-22 00:00N 31°36' E 121°27'0 0.0
2018-May-21 23:27N 31°36' E 121°27'0 0.0
2018-May-21 22:57N 31°36' E 121°27'0 0.0
2018-May-21 22:30N 31°36' E 121°27'0 0.0
2018-May-21 21:57N 31°36' E 121°27'0 0.0
2018-May-21 21:27N 31°36' E 121°27'0 0.0
2018-May-21 20:57N 31°36' E 121°27'0 0.0
2018-May-21 20:30N 31°36' E 121°27'0 0.0
2018-May-21 19:57N 31°36' E 121°27'0 0.0
2018-May-21 19:30N 31°36' E 121°27'0 0.0
2018-May-21 18:57N 31°36' E 121°27'0 0.0
2018-May-21 18:30N 31°36' E 121°27'0 0.0
2018-May-21 17:57N 31°36' E 121°27'0 0.0
2018-May-21 17:27N 31°36' E 121°27'0 0.0
2018-May-21 16:57N 31°36' E 121°27'0 0.0
2018-May-21 16:30N 31°36' E 121°27'0 0.0
2018-May-21 15:51N 31°36' E 121°27'0 0.0
2018-May-21 15:30N 31°36' E 121°27'0 0.1
2018-May-21 14:57N 31°36' E 121°27'  

Dump ship's entire track history